sensor_id;sensor_type;location;lat;lon;timestamp;temperature;humidity
27848;DHT22;15212;48.830;8.730;2023-04-25T00:00:26;6.80;99.90
27848;DHT22;15212;48.830;8.730;2023-04-25T00:02:54;6.70;99.90
27848;DHT22;15212;48.830;8.730;2023-04-25T00:05:26;6.80;99.90
27848;DHT22;15212;48.830;8.730;2023-04-25T00:07:55;6.80;99.90
27848;DHT22;15212;48.830;8.730;2023-04-25T00:10:25;6.70;99.90
27848;DHT22;15212;48.830;8.730;2023-04-25T00:12:53;6.70;99.90
27848;DHT22;15212;48.830;8.730;2023-04-25T00:15:22;6.80;99.90
27848;DHT22;15212;48.830;8.730;2023-04-25T00:17:50;6.80;99.90
27848;DHT22;15212;48.830;8.730;2023-04-25T00:20:19;6.80;99.90
27848;DHT22;15212;48.830;8.730;2023-04-25T00:22:48;6.80;99.90
27848;DHT22;15212;48.830;8.730;2023-04-25T00:25:17;6.80;99.90
27848;DHT22;15212;48.830;8.730;2023-04-25T00:27:45;6.80;99.90
27848;DHT22;15212;48.830;8.730;2023-04-25T00:30:14;6.80;99.90
27848;DHT22;15212;48.830;8.730;2023-04-25T00:32:42;6.80;99.90
27848;DHT22;15212;48.830;8.730;2023-04-25T00:35:11;6.90;99.90
27848;DHT22;15212;48.830;8.730;2023-04-25T00:37:40;6.90;99.90
27848;DHT22;15212;48.830;8.730;2023-04-25T00:40:09;6.90;99.90
27848;DHT22;15212;48.830;8.730;2023-04-25T00:42:38;6.90;99.90
27848;DHT22;15212;48.830;8.730;2023-04-25T00:45:07;6.90;99.90
27848;DHT22;15212;48.830;8.730;2023-04-25T00:47:37;6.90;99.90
27848;DHT22;15212;48.830;8.730;2023-04-25T00:50:07;6.80;99.90
27848;DHT22;15212;48.830;8.730;2023-04-25T00:52:41;6.80;99.90
27848;DHT22;15212;48.830;8.730;2023-04-25T00:55:12;6.80;99.90
27848;DHT22;15212;48.830;8.730;2023-04-25T00:57:42;6.70;99.90
27848;DHT22;15212;48.830;8.730;2023-04-25T01:00:11;6.70;99.90
27848;DHT22;15212;48.830;8.730;2023-04-25T01:02:41;6.70;99.90
27848;DHT22;15212;48.830;8.730;2023-04-25T01:05:09;6.60;99.90
27848;DHT22;15212;48.830;8.730;2023-04-25T01:07:38;6.60;99.90
27848;DHT22;15212;48.830;8.730;2023-04-25T01:10:08;6.60;99.90
27848;DHT22;15212;48.830;8.730;2023-04-25T01:12:36;6.60;99.90
27848;DHT22;15212;48.830;8.730;2023-04-25T01:15:05;6.50;99.90
27848;DHT22;15212;48.830;8.730;2023-04-25T01:17:35;6.50;99.90
27848;DHT22;15212;48.830;8.730;2023-04-25T01:20:05;6.50;99.90
27848;DHT22;15212;48.830;8.730;2023-04-25T01:22:36;6.50;99.90
27848;DHT22;15212;48.830;8.730;2023-04-25T01:25:05;6.50;99.90
27848;DHT22;15212;48.830;8.730;2023-04-25T01:27:33;6.60;99.90
27848;DHT22;15212;48.830;8.730;2023-04-25T01:30:04;6.60;99.90
27848;DHT22;15212;48.830;8.730;2023-04-25T01:32:34;6.60;99.90
27848;DHT22;15212;48.830;8.730;2023-04-25T01:35:09;6.50;99.90
27848;DHT22;15212;48.830;8.730;2023-04-25T01:37:39;6.50;99.90
27848;DHT22;15212;48.830;8.730;2023-04-25T01:40:10;6.60;99.90
27848;DHT22;15212;48.830;8.730;2023-04-25T01:42:42;6.60;99.90
27848;DHT22;15212;48.830;8.730;2023-04-25T01:45:11;6.60;99.90
27848;DHT22;15212;48.830;8.730;2023-04-25T01:47:40;6.60;99.90
27848;DHT22;15212;48.830;8.730;2023-04-25T01:50:10;6.60;99.90
27848;DHT22;15212;48.830;8.730;2023-04-25T01:52:38;6.60;99.90
27848;DHT22;15212;48.830;8.730;2023-04-25T01:55:07;6.60;99.90
27848;DHT22;15212;48.830;8.730;2023-04-25T01:57:36;6.60;99.90
27848;DHT22;15212;48.830;8.730;2023-04-25T02:00:06;6.60;99.90
27848;DHT22;15212;48.830;8.730;2023-04-25T02:02:35;6.50;99.90
27848;DHT22;15212;48.830;8.730;2023-04-25T02:05:04;6.50;99.90
27848;DHT22;15212;48.830;8.730;2023-04-25T02:07:33;6.50;99.90
27848;DHT22;15212;48.830;8.730;2023-04-25T02:10:01;6.50;99.90
27848;DHT22;15212;48.830;8.730;2023-04-25T02:12:30;6.40;99.90
27848;DHT22;15212;48.830;8.730;2023-04-25T02:14:58;6.40;99.90
27848;DHT22;15212;48.830;8.730;2023-04-25T02:17:27;6.40;99.90
27848;DHT22;15212;48.830;8.730;2023-04-25T02:19:55;6.50;99.90
27848;DHT22;15212;48.830;8.730;2023-04-25T02:22:24;6.40;99.90
27848;DHT22;15212;48.830;8.730;2023-04-25T02:24:54;6.40;99.90
27848;DHT22;15212;48.830;8.730;2023-04-25T02:29:51;6.40;99.90
27848;DHT22;15212;48.830;8.730;2023-04-25T02:32:20;6.40;99.90
27848;DHT22;15212;48.830;8.730;2023-04-25T02:34:48;6.50;99.90
27848;DHT22;15212;48.830;8.730;2023-04-25T02:37:17;6.50;99.90
27848;DHT22;15212;48.830;8.730;2023-04-25T02:39:45;6.50;99.90
27848;DHT22;15212;48.830;8.730;2023-04-25T02:42:13;6.50;99.90
27848;DHT22;15212;48.830;8.730;2023-04-25T02:44:42;6.50;99.90
27848;DHT22;15212;48.830;8.730;2023-04-25T02:47:10;6.50;99.90
27848;DHT22;15212;48.830;8.730;2023-04-25T02:49:41;6.50;99.90
27848;DHT22;15212;48.830;8.730;2023-04-25T02:52:09;6.50;99.90
27848;DHT22;15212;48.830;8.730;2023-04-25T02:54:39;6.50;99.90
27848;DHT22;15212;48.830;8.730;2023-04-25T02:57:08;6.50;99.90
27848;DHT22;15212;48.830;8.730;2023-04-25T02:59:36;6.50;99.90
27848;DHT22;15212;48.830;8.730;2023-04-25T03:02:05;6.50;99.90
27848;DHT22;15212;48.830;8.730;2023-04-25T03:04:33;6.50;99.90
27848;DHT22;15212;48.830;8.730;2023-04-25T03:07:01;6.50;99.90
27848;DHT22;15212;48.830;8.730;2023-04-25T03:09:30;6.50;99.90
27848;DHT22;15212;48.830;8.730;2023-04-25T03:11:58;6.50;99.90
27848;DHT22;15212;48.830;8.730;2023-04-25T03:14:26;6.50;99.90
27848;DHT22;15212;48.830;8.730;2023-04-25T03:16:55;6.50;99.90
27848;DHT22;15212;48.830;8.730;2023-04-25T03:19:23;6.50;99.90
27848;DHT22;15212;48.830;8.730;2023-04-25T03:21:52;6.40;99.90
27848;DHT22;15212;48.830;8.730;2023-04-25T03:24:20;6.40;99.90
27848;DHT22;15212;48.830;8.730;2023-04-25T03:26:49;6.40;99.90
27848;DHT22;15212;48.830;8.730;2023-04-25T03:29:17;6.40;99.90
27848;DHT22;15212;48.830;8.730;2023-04-25T03:31:47;6.40;99.90
27848;DHT22;15212;48.830;8.730;2023-04-25T03:34:16;6.40;99.90
27848;DHT22;15212;48.830;8.730;2023-04-25T03:36:44;6.40;99.90
27848;DHT22;15212;48.830;8.730;2023-04-25T03:39:12;6.40;99.90
27848;DHT22;15212;48.830;8.730;2023-04-25T03:41:41;6.40;99.90
27848;DHT22;15212;48.830;8.730;2023-04-25T03:44:09;6.40;99.90
27848;DHT22;15212;48.830;8.730;2023-04-25T03:46:38;6.40;99.90
27848;DHT22;15212;48.830;8.730;2023-04-25T03:49:06;6.40;99.90
27848;DHT22;15212;48.830;8.730;2023-04-25T03:51:35;6.30;99.90
27848;DHT22;15212;48.830;8.730;2023-04-25T03:54:03;6.30;99.90
27848;DHT22;15212;48.830;8.730;2023-04-25T03:56:32;6.30;99.90
27848;DHT22;15212;48.830;8.730;2023-04-25T03:59:01;6.30;99.90
27848;DHT22;15212;48.830;8.730;2023-04-25T04:01:29;6.30;99.90
27848;DHT22;15212;48.830;8.730;2023-04-25T04:03:58;6.20;99.90
27848;DHT22;15212;48.830;8.730;2023-04-25T04:06:26;6.30;99.90
27848;DHT22;15212;48.830;8.730;2023-04-25T04:08:55;6.30;99.90
27848;DHT22;15212;48.830;8.730;2023-04-25T04:11:23;6.30;99.90
27848;DHT22;15212;48.830;8.730;2023-04-25T04:13:52;6.30;99.90
27848;DHT22;15212;48.830;8.730;2023-04-25T04:16:21;6.30;99.90
27848;DHT22;15212;48.830;8.730;2023-04-25T04:18:49;6.30;99.90
27848;DHT22;15212;48.830;8.730;2023-04-25T04:21:17;6.30;99.90
27848;DHT22;15212;48.830;8.730;2023-04-25T04:23:46;6.30;99.90
27848;DHT22;15212;48.830;8.730;2023-04-25T04:26:14;6.30;99.90
27848;DHT22;15212;48.830;8.730;2023-04-25T04:28:45;6.30;99.90
27848;DHT22;15212;48.830;8.730;2023-04-25T04:31:14;6.40;99.90
27848;DHT22;15212;48.830;8.730;2023-04-25T04:33:43;6.40;99.90
27848;DHT22;15212;48.830;8.730;2023-04-25T04:36:12;6.50;99.90
27848;DHT22;15212;48.830;8.730;2023-04-25T04:38:40;6.40;99.90
27848;DHT22;15212;48.830;8.730;2023-04-25T04:41:08;6.50;99.90
27848;DHT22;15212;48.830;8.730;2023-04-25T04:43:37;6.40;99.90
27848;DHT22;15212;48.830;8.730;2023-04-25T04:46:06;6.40;99.90
27848;DHT22;15212;48.830;8.730;2023-04-25T04:48:36;6.40;99.90
27848;DHT22;15212;48.830;8.730;2023-04-25T04:51:06;6.30;99.90
27848;DHT22;15212;48.830;8.730;2023-04-25T04:53:34;6.20;99.90
27848;DHT22;15212;48.830;8.730;2023-04-25T04:56:03;6.10;99.90
27848;DHT22;15212;48.830;8.730;2023-04-25T04:58:31;6.10;99.90
27848;DHT22;15212;48.830;8.730;2023-04-25T05:01:00;6.00;99.90
27848;DHT22;15212;48.830;8.730;2023-04-25T05:03:28;6.00;99.90
27848;DHT22;15212;48.830;8.730;2023-04-25T05:05:56;5.90;99.90
27848;DHT22;15212;48.830;8.730;2023-04-25T05:08:25;5.90;99.90
27848;DHT22;15212;48.830;8.730;2023-04-25T05:10:53;5.90;99.90
27848;DHT22;15212;48.830;8.730;2023-04-25T05:13:22;6.00;99.90
27848;DHT22;15212;48.830;8.730;2023-04-25T05:15:50;5.90;99.90
27848;DHT22;15212;48.830;8.730;2023-04-25T05:18:18;6.00;99.90
27848;DHT22;15212;48.830;8.730;2023-04-25T05:20:47;6.00;99.90
27848;DHT22;15212;48.830;8.730;2023-04-25T05:23:15;6.00;99.90
27848;DHT22;15212;48.830;8.730;2023-04-25T05:25:43;6.00;99.90
27848;DHT22;15212;48.830;8.730;2023-04-25T05:28:13;6.00;99.90
27848;DHT22;15212;48.830;8.730;2023-04-25T05:30:41;6.00;99.90
27848;DHT22;15212;48.830;8.730;2023-04-25T05:33:09;6.00;99.90
27848;DHT22;15212;48.830;8.730;2023-04-25T05:35:38;6.00;99.90
27848;DHT22;15212;48.830;8.730;2023-04-25T05:38:06;6.00;99.90
27848;DHT22;15212;48.830;8.730;2023-04-25T05:40:35;6.10;99.90
27848;DHT22;15212;48.830;8.730;2023-04-25T05:43:03;6.10;99.90
27848;DHT22;15212;48.830;8.730;2023-04-25T05:45:31;6.10;99.90
27848;DHT22;15212;48.830;8.730;2023-04-25T05:48:00;6.20;99.90
27848;DHT22;15212;48.830;8.730;2023-04-25T05:50:28;6.20;99.90
27848;DHT22;15212;48.830;8.730;2023-04-25T05:52:56;6.30;99.90
27848;DHT22;15212;48.830;8.730;2023-04-25T05:55:25;6.30;99.90
27848;DHT22;15212;48.830;8.730;2023-04-25T05:57:53;6.40;99.90
27848;DHT22;15212;48.830;8.730;2023-04-25T06:00:22;6.50;99.90
27848;DHT22;15212;48.830;8.730;2023-04-25T06:02:50;6.50;99.90
27848;DHT22;15212;48.830;8.730;2023-04-25T06:05:18;6.60;99.90
27848;DHT22;15212;48.830;8.730;2023-04-25T06:07:47;6.60;99.90
27848;DHT22;15212;48.830;8.730;2023-04-25T06:10:16;6.60;99.90
27848;DHT22;15212;48.830;8.730;2023-04-25T06:12:45;6.70;99.90
27848;DHT22;15212;48.830;8.730;2023-04-25T06:15:13;6.70;99.90
27848;DHT22;15212;48.830;8.730;2023-04-25T06:17:42;6.60;99.90
27848;DHT22;15212;48.830;8.730;2023-04-25T06:20:11;6.60;99.90
27848;DHT22;15212;48.830;8.730;2023-04-25T06:22:39;6.60;99.90
27848;DHT22;15212;48.830;8.730;2023-04-25T06:25:08;6.50;99.90
27848;DHT22;15212;48.830;8.730;2023-04-25T06:27:36;6.50;99.90
27848;DHT22;15212;48.830;8.730;2023-04-25T06:30:05;6.50;99.90
27848;DHT22;15212;48.830;8.730;2023-04-25T06:32:34;6.50;99.90
27848;DHT22;15212;48.830;8.730;2023-04-25T06:35:03;6.50;99.90
27848;DHT22;15212;48.830;8.730;2023-04-25T06:37:31;6.50;99.90
27848;DHT22;15212;48.830;8.730;2023-04-25T06:40:00;6.50;99.90
27848;DHT22;15212;48.830;8.730;2023-04-25T06:42:28;6.50;99.90
27848;DHT22;15212;48.830;8.730;2023-04-25T06:44:57;6.50;99.90
27848;DHT22;15212;48.830;8.730;2023-04-25T06:47:25;6.50;99.90
27848;DHT22;15212;48.830;8.730;2023-04-25T06:49:54;6.50;99.90
27848;DHT22;15212;48.830;8.730;2023-04-25T06:52:22;6.50;99.90
27848;DHT22;15212;48.830;8.730;2023-04-25T06:54:50;6.50;99.90
27848;DHT22;15212;48.830;8.730;2023-04-25T06:57:19;6.50;99.90
27848;DHT22;15212;48.830;8.730;2023-04-25T06:59:47;6.50;99.90
27848;DHT22;15212;48.830;8.730;2023-04-25T07:02:16;6.60;99.90
27848;DHT22;15212;48.830;8.730;2023-04-25T07:04:44;6.60;99.90
27848;DHT22;15212;48.830;8.730;2023-04-25T07:07:12;6.70;99.90
27848;DHT22;15212;48.830;8.730;2023-04-25T07:09:41;6.70;99.90
27848;DHT22;15212;48.830;8.730;2023-04-25T07:12:09;6.70;99.90
27848;DHT22;15212;48.830;8.730;2023-04-25T07:14:37;6.70;99.90
27848;DHT22;15212;48.830;8.730;2023-04-25T07:17:06;6.70;99.90
27848;DHT22;15212;48.830;8.730;2023-04-25T07:19:34;6.70;99.90
27848;DHT22;15212;48.830;8.730;2023-04-25T07:22:04;6.70;99.90
27848;DHT22;15212;48.830;8.730;2023-04-25T07:24:33;6.70;99.90
27848;DHT22;15212;48.830;8.730;2023-04-25T07:27:01;6.70;99.90
27848;DHT22;15212;48.830;8.730;2023-04-25T07:29:30;6.70;99.90
27848;DHT22;15212;48.830;8.730;2023-04-25T07:31:58;6.70;99.90
27848;DHT22;15212;48.830;8.730;2023-04-25T07:34:26;6.80;99.90
27848;DHT22;15212;48.830;8.730;2023-04-25T07:36:56;6.80;99.90
27848;DHT22;15212;48.830;8.730;2023-04-25T07:39:26;6.80;99.90
27848;DHT22;15212;48.830;8.730;2023-04-25T07:41:54;6.80;99.90
27848;DHT22;15212;48.830;8.730;2023-04-25T07:44:24;6.90;99.90
27848;DHT22;15212;48.830;8.730;2023-04-25T07:46:53;6.90;99.90
27848;DHT22;15212;48.830;8.730;2023-04-25T07:49:21;6.80;99.90
27848;DHT22;15212;48.830;8.730;2023-04-25T07:51:49;6.80;99.90
27848;DHT22;15212;48.830;8.730;2023-04-25T07:54:18;6.70;99.90
27848;DHT22;15212;48.830;8.730;2023-04-25T07:56:46;6.80;99.90
27848;DHT22;15212;48.830;8.730;2023-04-25T07:59:15;6.70;99.90
27848;DHT22;15212;48.830;8.730;2023-04-25T08:01:43;6.70;99.90
27848;DHT22;15212;48.830;8.730;2023-04-25T08:04:11;6.70;99.90
27848;DHT22;15212;48.830;8.730;2023-04-25T08:06:40;6.60;99.90
27848;DHT22;15212;48.830;8.730;2023-04-25T08:09:09;6.60;99.90
27848;DHT22;15212;48.830;8.730;2023-04-25T08:11:38;6.60;99.90
27848;DHT22;15212;48.830;8.730;2023-04-25T08:14:06;6.50;99.90
27848;DHT22;15212;48.830;8.730;2023-04-25T08:16:35;6.50;99.90
27848;DHT22;15212;48.830;8.730;2023-04-25T08:19:03;6.50;99.90
27848;DHT22;15212;48.830;8.730;2023-04-25T08:21:32;6.50;99.90
27848;DHT22;15212;48.830;8.730;2023-04-25T08:24:00;6.40;99.90
27848;DHT22;15212;48.830;8.730;2023-04-25T08:26:29;6.40;99.90
27848;DHT22;15212;48.830;8.730;2023-04-25T08:28:57;6.40;99.90
27848;DHT22;15212;48.830;8.730;2023-04-25T08:31:26;6.40;99.90
27848;DHT22;15212;48.830;8.730;2023-04-25T08:33:54;6.40;99.90
27848;DHT22;15212;48.830;8.730;2023-04-25T08:36:22;6.40;99.90
27848;DHT22;15212;48.830;8.730;2023-04-25T08:38:51;6.30;99.90
27848;DHT22;15212;48.830;8.730;2023-04-25T08:41:20;6.30;99.90
27848;DHT22;15212;48.830;8.730;2023-04-25T08:43:50;6.30;99.90
27848;DHT22;15212;48.830;8.730;2023-04-25T08:46:19;6.20;99.90
27848;DHT22;15212;48.830;8.730;2023-04-25T08:48:48;6.20;99.90
27848;DHT22;15212;48.830;8.730;2023-04-25T08:51:21;6.20;99.90
27848;DHT22;15212;48.830;8.730;2023-04-25T08:53:54;6.20;99.90
27848;DHT22;15212;48.830;8.730;2023-04-25T08:56:24;6.20;99.90
27848;DHT22;15212;48.830;8.730;2023-04-25T08:58:53;6.20;99.90
27848;DHT22;15212;48.830;8.730;2023-04-25T09:01:23;6.30;99.90
27848;DHT22;15212;48.830;8.730;2023-04-25T09:03:52;6.30;99.90
27848;DHT22;15212;48.830;8.730;2023-04-25T09:06:21;6.30;99.90
27848;DHT22;15212;48.830;8.730;2023-04-25T09:08:51;6.40;99.90
27848;DHT22;15212;48.830;8.730;2023-04-25T09:11:19;6.30;99.90
27848;DHT22;15212;48.830;8.730;2023-04-25T09:13:47;6.30;99.90
27848;DHT22;15212;48.830;8.730;2023-04-25T09:16:16;6.30;99.90
27848;DHT22;15212;48.830;8.730;2023-04-25T09:18:47;6.40;99.90
27848;DHT22;15212;48.830;8.730;2023-04-25T09:21:16;6.40;99.90
27848;DHT22;15212;48.830;8.730;2023-04-25T09:23:46;6.40;99.90
27848;DHT22;15212;48.830;8.730;2023-04-25T09:26:17;6.40;99.90
27848;DHT22;15212;48.830;8.730;2023-04-25T09:28:47;6.30;99.90
27848;DHT22;15212;48.830;8.730;2023-04-25T09:31:25;6.30;99.90
27848;DHT22;15212;48.830;8.730;2023-04-25T09:33:59;6.40;99.90
27848;DHT22;15212;48.830;8.730;2023-04-25T09:36:29;6.40;99.90
27848;DHT22;15212;48.830;8.730;2023-04-25T09:39:00;6.50;99.90
27848;DHT22;15212;48.830;8.730;2023-04-25T09:41:29;6.60;99.90
27848;DHT22;15212;48.830;8.730;2023-04-25T09:43:59;6.70;99.90
27848;DHT22;15212;48.830;8.730;2023-04-25T09:46:37;6.70;99.90
27848;DHT22;15212;48.830;8.730;2023-04-25T09:49:08;6.80;99.90
27848;DHT22;15212;48.830;8.730;2023-04-25T09:51:36;6.90;99.90
27848;DHT22;15212;48.830;8.730;2023-04-25T09:54:04;6.90;99.90
27848;DHT22;15212;48.830;8.730;2023-04-25T09:56:35;7.00;99.90
27848;DHT22;15212;48.830;8.730;2023-04-25T09:59:05;6.90;99.90
27848;DHT22;15212;48.830;8.730;2023-04-25T10:01:35;7.00;99.90
27848;DHT22;15212;48.830;8.730;2023-04-25T10:04:04;7.00;99.90
27848;DHT22;15212;48.830;8.730;2023-04-25T10:06:34;7.00;99.90
27848;DHT22;15212;48.830;8.730;2023-04-25T10:09:04;7.20;99.90
27848;DHT22;15212;48.830;8.730;2023-04-25T10:11:34;7.30;99.90
27848;DHT22;15212;48.830;8.730;2023-04-25T10:14:03;7.40;99.90
27848;DHT22;15212;48.830;8.730;2023-04-25T10:16:32;7.40;99.90
27848;DHT22;15212;48.830;8.730;2023-04-25T10:19:02;7.50;99.90
27848;DHT22;15212;48.830;8.730;2023-04-25T10:21:32;7.60;99.90
27848;DHT22;15212;48.830;8.730;2023-04-25T10:24:01;7.60;99.90
27848;DHT22;15212;48.830;8.730;2023-04-25T10:26:30;7.50;99.90
27848;DHT22;15212;48.830;8.730;2023-04-25T10:29:01;7.40;99.90
27848;DHT22;15212;48.830;8.730;2023-04-25T10:31:30;7.40;99.90
27848;DHT22;15212;48.830;8.730;2023-04-25T10:34:02;7.20;99.90
27848;DHT22;15212;48.830;8.730;2023-04-25T10:36:32;7.00;99.90
27848;DHT22;15212;48.830;8.730;2023-04-25T10:39:06;6.90;99.90
27848;DHT22;15212;48.830;8.730;2023-04-25T10:41:48;6.70;99.90
27848;DHT22;15212;48.830;8.730;2023-04-25T10:44:21;6.60;99.90
27848;DHT22;15212;48.830;8.730;2023-04-25T10:46:49;6.50;99.90
27848;DHT22;15212;48.830;8.730;2023-04-25T10:49:32;6.40;99.90
27848;DHT22;15212;48.830;8.730;2023-04-25T10:52:25;6.30;99.90
27848;DHT22;15212;48.830;8.730;2023-04-25T10:54:57;6.20;99.90
27848;DHT22;15212;48.830;8.730;2023-04-25T10:57:36;6.20;99.90
27848;DHT22;15212;48.830;8.730;2023-04-25T11:00:15;6.30;99.90
27848;DHT22;15212;48.830;8.730;2023-04-25T11:02:51;6.30;99.90
27848;DHT22;15212;48.830;8.730;2023-04-25T11:05:34;6.40;99.90
27848;DHT22;15212;48.830;8.730;2023-04-25T11:08:07;6.30;99.90
27848;DHT22;15212;48.830;8.730;2023-04-25T11:10:36;6.30;99.90
27848;DHT22;15212;48.830;8.730;2023-04-25T11:13:04;6.30;99.90
27848;DHT22;15212;48.830;8.730;2023-04-25T11:15:33;6.30;99.90
27848;DHT22;15212;48.830;8.730;2023-04-25T11:18:01;6.30;99.90
27848;DHT22;15212;48.830;8.730;2023-04-25T11:20:30;6.30;99.90
27848;DHT22;15212;48.830;8.730;2023-04-25T11:22:59;6.30;99.90
27848;DHT22;15212;48.830;8.730;2023-04-25T11:25:28;6.30;99.90
27848;DHT22;15212;48.830;8.730;2023-04-25T11:27:59;6.40;99.90
27848;DHT22;15212;48.830;8.730;2023-04-25T11:30:29;6.50;99.90
27848;DHT22;15212;48.830;8.730;2023-04-25T11:32:57;6.50;99.90
27848;DHT22;15212;48.830;8.730;2023-04-25T11:35:26;6.40;99.90
27848;DHT22;15212;48.830;8.730;2023-04-25T11:37:54;6.40;99.90
27848;DHT22;15212;48.830;8.730;2023-04-25T11:40:23;6.40;99.90
27848;DHT22;15212;48.830;8.730;2023-04-25T11:42:51;6.40;99.90
27848;DHT22;15212;48.830;8.730;2023-04-25T11:45:19;6.40;99.90
27848;DHT22;15212;48.830;8.730;2023-04-25T11:47:48;6.40;99.90
27848;DHT22;15212;48.830;8.730;2023-04-25T11:50:17;6.40;99.90
27848;DHT22;15212;48.830;8.730;2023-04-25T11:52:47;6.40;99.90
27848;DHT22;15212;48.830;8.730;2023-04-25T11:55:18;6.30;99.90
27848;DHT22;15212;48.830;8.730;2023-04-25T11:57:49;6.40;99.90
27848;DHT22;15212;48.830;8.730;2023-04-25T12:00:20;6.40;99.90
27848;DHT22;15212;48.830;8.730;2023-04-25T12:02:54;6.60;99.90
27848;DHT22;15212;48.830;8.730;2023-04-25T12:05:30;6.70;99.90
27848;DHT22;15212;48.830;8.730;2023-04-25T12:07:57;6.90;99.90
27848;DHT22;15212;48.830;8.730;2023-04-25T12:10:26;7.00;99.90
27848;DHT22;15212;48.830;8.730;2023-04-25T12:12:54;7.30;99.90
27848;DHT22;15212;48.830;8.730;2023-04-25T12:15:26;7.50;99.90
27848;DHT22;15212;48.830;8.730;2023-04-25T12:17:54;7.80;99.90
27848;DHT22;15212;48.830;8.730;2023-04-25T12:20:24;8.00;99.90
27848;DHT22;15212;48.830;8.730;2023-04-25T12:22:53;8.10;99.90
27848;DHT22;15212;48.830;8.730;2023-04-25T12:25:41;8.20;99.90
27848;DHT22;15212;48.830;8.730;2023-04-25T12:28:16;8.10;99.90
27848;DHT22;15212;48.830;8.730;2023-04-25T12:31:05;8.10;99.90
27848;DHT22;15212;48.830;8.730;2023-04-25T12:33:36;8.10;99.90
27848;DHT22;15212;48.830;8.730;2023-04-25T12:36:06;8.10;99.90
27848;DHT22;15212;48.830;8.730;2023-04-25T12:38:39;8.00;99.90
27848;DHT22;15212;48.830;8.730;2023-04-25T12:41:09;8.00;99.90
27848;DHT22;15212;48.830;8.730;2023-04-25T12:43:37;8.00;99.90
27848;DHT22;15212;48.830;8.730;2023-04-25T12:46:06;8.00;99.90
27848;DHT22;15212;48.830;8.730;2023-04-25T12:48:34;8.00;99.90
27848;DHT22;15212;48.830;8.730;2023-04-25T12:51:04;8.00;99.90
27848;DHT22;15212;48.830;8.730;2023-04-25T12:53:33;8.00;99.90
27848;DHT22;15212;48.830;8.730;2023-04-25T12:56:03;8.00;99.90
27848;DHT22;15212;48.830;8.730;2023-04-25T12:58:32;8.00;99.90
27848;DHT22;15212;48.830;8.730;2023-04-25T13:01:00;8.10;99.90
27848;DHT22;15212;48.830;8.730;2023-04-25T13:03:29;8.00;99.90
27848;DHT22;15212;48.830;8.730;2023-04-25T13:05:58;8.10;99.90
27848;DHT22;15212;48.830;8.730;2023-04-25T13:08:26;8.20;99.90
27848;DHT22;15212;48.830;8.730;2023-04-25T13:10:54;8.00;99.90
27848;DHT22;15212;48.830;8.730;2023-04-25T13:13:23;7.90;99.90
27848;DHT22;15212;48.830;8.730;2023-04-25T13:15:53;7.90;99.90
27848;DHT22;15212;48.830;8.730;2023-04-25T13:18:22;7.80;99.90
27848;DHT22;15212;48.830;8.730;2023-04-25T13:20:52;7.80;99.90
27848;DHT22;15212;48.830;8.730;2023-04-25T13:23:21;7.90;99.90
27848;DHT22;15212;48.830;8.730;2023-04-25T13:25:49;7.90;99.90
27848;DHT22;15212;48.830;8.730;2023-04-25T13:28:18;7.90;99.90
27848;DHT22;15212;48.830;8.730;2023-04-25T13:30:47;7.80;99.90
27848;DHT22;15212;48.830;8.730;2023-04-25T13:33:16;7.90;99.90
27848;DHT22;15212;48.830;8.730;2023-04-25T13:35:44;7.90;99.90
27848;DHT22;15212;48.830;8.730;2023-04-25T13:38:24;8.00;99.90
27848;DHT22;15212;48.830;8.730;2023-04-25T13:40:53;8.20;99.90
27848;DHT22;15212;48.830;8.730;2023-04-25T13:43:22;8.20;99.90
27848;DHT22;15212;48.830;8.730;2023-04-25T13:45:50;8.20;99.90
27848;DHT22;15212;48.830;8.730;2023-04-25T13:48:19;8.20;99.90
27848;DHT22;15212;48.830;8.730;2023-04-25T13:50:47;8.20;99.90
27848;DHT22;15212;48.830;8.730;2023-04-25T13:53:15;8.30;99.90
27848;DHT22;15212;48.830;8.730;2023-04-25T13:55:44;8.40;99.90
27848;DHT22;15212;48.830;8.730;2023-04-25T13:58:12;8.40;99.90
27848;DHT22;15212;48.830;8.730;2023-04-25T14:00:41;8.50;99.90
27848;DHT22;15212;48.830;8.730;2023-04-25T14:03:11;8.70;99.90
27848;DHT22;15212;48.830;8.730;2023-04-25T14:05:39;8.70;99.90
27848;DHT22;15212;48.830;8.730;2023-04-25T14:08:09;8.70;99.90
27848;DHT22;15212;48.830;8.730;2023-04-25T14:10:38;8.80;99.90
27848;DHT22;15212;48.830;8.730;2023-04-25T14:13:06;8.80;99.90
27848;DHT22;15212;48.830;8.730;2023-04-25T14:15:35;8.90;99.90
27848;DHT22;15212;48.830;8.730;2023-04-25T14:18:03;8.90;99.90
27848;DHT22;15212;48.830;8.730;2023-04-25T14:20:32;8.90;99.90
27848;DHT22;15212;48.830;8.730;2023-04-25T14:23:01;9.00;99.90
27848;DHT22;15212;48.830;8.730;2023-04-25T14:25:30;9.10;99.90
27848;DHT22;15212;48.830;8.730;2023-04-25T14:27:59;9.00;99.90
27848;DHT22;15212;48.830;8.730;2023-04-25T14:30:27;9.00;99.90
27848;DHT22;15212;48.830;8.730;2023-04-25T14:32:56;9.00;99.90
27848;DHT22;15212;48.830;8.730;2023-04-25T14:35:24;9.10;99.90
27848;DHT22;15212;48.830;8.730;2023-04-25T14:37:53;9.10;99.90
27848;DHT22;15212;48.830;8.730;2023-04-25T14:40:22;9.10;99.90
27848;DHT22;15212;48.830;8.730;2023-04-25T14:42:50;9.00;99.90
27848;DHT22;15212;48.830;8.730;2023-04-25T14:45:19;9.10;99.90
27848;DHT22;15212;48.830;8.730;2023-04-25T14:47:47;9.20;99.90
27848;DHT22;15212;48.830;8.730;2023-04-25T14:50:15;9.20;99.90
27848;DHT22;15212;48.830;8.730;2023-04-25T14:52:44;9.40;99.90
27848;DHT22;15212;48.830;8.730;2023-04-25T14:55:12;9.40;99.90
27848;DHT22;15212;48.830;8.730;2023-04-25T14:57:41;9.50;99.90
27848;DHT22;15212;48.830;8.730;2023-04-25T15:00:10;9.60;99.90
27848;DHT22;15212;48.830;8.730;2023-04-25T15:02:40;9.70;99.90
27848;DHT22;15212;48.830;8.730;2023-04-25T15:05:08;9.70;99.90
27848;DHT22;15212;48.830;8.730;2023-04-25T15:07:37;9.60;99.90
27848;DHT22;15212;48.830;8.730;2023-04-25T15:10:07;9.60;99.90
27848;DHT22;15212;48.830;8.730;2023-04-25T15:12:38;9.50;99.90
27848;DHT22;15212;48.830;8.730;2023-04-25T15:15:08;9.50;99.90
27848;DHT22;15212;48.830;8.730;2023-04-25T15:17:40;9.50;99.90
27848;DHT22;15212;48.830;8.730;2023-04-25T15:20:10;9.50;99.90
27848;DHT22;15212;48.830;8.730;2023-04-25T15:22:41;9.40;99.90
27848;DHT22;15212;48.830;8.730;2023-04-25T15:25:12;9.40;99.90
27848;DHT22;15212;48.830;8.730;2023-04-25T15:27:42;9.30;99.90
27848;DHT22;15212;48.830;8.730;2023-04-25T15:30:12;9.30;99.90
27848;DHT22;15212;48.830;8.730;2023-04-25T15:32:42;9.20;99.90
27848;DHT22;15212;48.830;8.730;2023-04-25T15:35:14;9.10;99.90
27848;DHT22;15212;48.830;8.730;2023-04-25T15:37:42;9.10;99.90
27848;DHT22;15212;48.830;8.730;2023-04-25T15:40:14;9.10;99.90
27848;DHT22;15212;48.830;8.730;2023-04-25T15:42:44;9.10;99.90
27848;DHT22;15212;48.830;8.730;2023-04-25T15:45:14;9.20;99.90
27848;DHT22;15212;48.830;8.730;2023-04-25T15:47:43;9.20;99.90
27848;DHT22;15212;48.830;8.730;2023-04-25T15:50:12;9.30;99.90
27848;DHT22;15212;48.830;8.730;2023-04-25T15:52:43;9.30;99.90
27848;DHT22;15212;48.830;8.730;2023-04-25T15:55:11;9.30;99.90
27848;DHT22;15212;48.830;8.730;2023-04-25T15:57:42;9.30;99.90
27848;DHT22;15212;48.830;8.730;2023-04-25T16:00:11;9.40;99.90